createdAt,value
2023-02-04T00:01:46.434Z,4.63
2023-02-04T00:04:15.340Z,4.07
2023-02-04T00:06:44.593Z,3.73
2023-02-04T00:09:13.247Z,9.63
2023-02-04T00:11:41.251Z,4.03
2023-02-04T00:14:11.461Z,3.80
2023-02-04T00:16:42.173Z,3.43
2023-02-04T00:19:33.318Z,3.97
2023-02-04T00:22:07.932Z,3.70
2023-02-04T00:24:36.780Z,3.40
2023-02-04T00:27:08.258Z,3.53
2023-02-04T00:29:36.859Z,3.17
2023-02-04T00:32:09.281Z,3.67
2023-02-04T00:34:40.817Z,4.33
2023-02-04T00:37:08.819Z,3.87
2023-02-04T00:39:37.069Z,3.07
2023-02-04T00:42:06.335Z,2.93
2023-02-04T00:44:41.763Z,4.13
2023-02-04T00:47:11.089Z,3.60
2023-02-04T00:49:41.811Z,3.20
2023-02-04T00:52:10.106Z,3.07
2023-02-04T00:54:38.257Z,3.53
2023-02-04T00:57:07.798Z,3.50
2023-02-04T00:59:36.084Z,3.20
2023-02-04T01:02:04.426Z,3.40
2023-02-04T01:04:34.121Z,3.30
2023-02-04T01:07:04.569Z,3.27
2023-02-04T01:09:32.860Z,3.00
2023-02-04T01:12:01.763Z,3.50
2023-02-04T01:14:30.754Z,3.23
2023-02-04T01:16:59.198Z,3.00
2023-02-04T01:19:27.576Z,2.83
2023-02-04T01:22:19.806Z,2.63
2023-02-04T01:24:50.716Z,2.57
2023-02-04T01:27:18.736Z,2.90
2023-02-04T01:29:47.017Z,2.87
2023-02-04T01:32:15.066Z,2.70
2023-02-04T01:34:43.820Z,3.17
2023-02-04T01:37:17.828Z,3.10
2023-02-04T01:39:46.077Z,2.80
2023-02-04T01:42:15.394Z,3.40
2023-02-04T01:44:45.990Z,3.80
2023-02-04T01:47:15.660Z,3.00
2023-02-04T01:49:44.115Z,2.87
2023-02-04T01:52:14.246Z,3.10
2023-02-04T01:54:42.558Z,2.87
2023-02-04T01:57:16.331Z,2.90
2023-02-04T01:59:46.033Z,2.70
2023-02-04T02:02:40.312Z,3.33
2023-02-04T02:05:10.108Z,2.57
2023-02-04T02:07:40.642Z,2.90
2023-02-04T02:10:11.057Z,3.10
2023-02-04T02:12:39.897Z,2.80
2023-02-04T02:15:09.250Z,2.83
2023-02-04T02:17:38.092Z,3.43
2023-02-04T02:20:09.425Z,4.43
2023-02-04T02:22:48.050Z,2.73
2023-02-04T02:25:18.624Z,2.93
2023-02-04T02:27:48.770Z,2.83
2023-02-04T02:30:21.972Z,2.60
2023-02-04T02:32:52.905Z,3.13
2023-02-04T02:35:24.119Z,3.00
2023-02-04T02:37:54.032Z,2.50
2023-02-04T02:40:25.877Z,2.40
2023-02-04T02:42:56.848Z,3.40
2023-02-04T02:45:29.834Z,2.70
2023-02-04T02:48:00.564Z,2.93
2023-02-04T02:50:31.333Z,3.10
2023-02-04T02:53:00.194Z,2.63
2023-02-04T02:55:30.415Z,2.87
2023-02-04T02:58:00.935Z,3.53
2023-02-04T03:00:34.299Z,3.07
2023-02-04T03:03:08.316Z,2.37
2023-02-04T03:05:41.956Z,2.97
2023-02-04T03:08:12.251Z,3.57
2023-02-04T03:10:42.500Z,3.27
2023-02-04T03:13:14.577Z,3.47
2023-02-04T03:15:45.697Z,3.10
2023-02-04T03:18:15.524Z,2.50
2023-02-04T03:20:44.055Z,2.60
2023-02-04T03:23:13.177Z,2.83
2023-02-04T03:25:42.881Z,3.33
2023-02-04T03:28:11.460Z,2.97
2023-02-04T03:30:39.794Z,4.13
2023-02-04T03:33:08.550Z,3.27
2023-02-04T03:35:39.665Z,3.20
2023-02-04T03:38:09.389Z,2.93
2023-02-04T03:40:39.088Z,3.83
2023-02-04T03:43:34.013Z,2.63
2023-02-04T03:46:02.485Z,2.83
2023-02-04T03:48:31.120Z,3.20
2023-02-04T03:50:59.444Z,3.33
2023-02-04T03:53:29.584Z,3.00
2023-02-04T03:56:00.253Z,3.80
2023-02-04T03:58:29.819Z,3.97
2023-02-04T04:01:01.608Z,3.67
2023-02-04T04:03:30.727Z,3.60
2023-02-04T04:06:00.163Z,3.17
2023-02-04T04:08:29.535Z,3.63
2023-02-04T04:10:59.114Z,4.13
2023-02-04T04:13:51.998Z,3.20
2023-02-04T04:16:21.888Z,3.03
2023-02-04T04:18:49.925Z,3.30
2023-02-04T04:21:18.470Z,3.00
2023-02-04T04:23:49.193Z,3.10
2023-02-04T04:26:40.445Z,2.80
2023-02-04T04:29:33.929Z,3.53
2023-02-04T04:32:07.894Z,3.83
2023-02-04T04:34:38.222Z,3.60
2023-02-04T04:37:06.830Z,3.10
2023-02-04T04:39:35.854Z,3.53
2023-02-04T04:42:08.980Z,3.03
2023-02-04T04:44:40.084Z,3.20
2023-02-04T04:47:09.825Z,3.10
2023-02-04T04:49:59.931Z,2.70
2023-02-04T04:53:08.401Z,4.03
2023-02-04T04:55:36.569Z,3.60
2023-02-04T04:58:26.825Z,3.53
2023-02-04T05:00:57.966Z,3.87
2023-02-04T05:03:27.612Z,3.60
2023-02-04T05:05:58.556Z,3.77
2023-02-04T05:08:27.636Z,4.30
2023-02-04T05:10:57.244Z,3.80
2023-02-04T05:13:25.597Z,3.70
2023-02-04T05:15:58.680Z,3.77
2023-02-04T05:18:30.239Z,3.47
2023-02-04T05:20:59.939Z,4.30
2023-02-04T05:23:30.875Z,3.60
2023-02-04T05:26:01.035Z,3.97
2023-02-04T05:28:29.543Z,3.27
2023-02-04T05:31:06.921Z,4.63
2023-02-04T05:33:35.121Z,3.20
2023-02-04T05:36:10.566Z,3.73
2023-02-04T05:38:41.274Z,4.17
2023-02-04T05:41:09.664Z,3.70
2023-02-04T05:43:44.190Z,3.67
2023-02-04T05:46:15.199Z,4.67
2023-02-04T05:48:45.072Z,3.53
2023-02-04T05:51:13.053Z,4.03
2023-02-04T05:53:41.232Z,4.00
2023-02-04T05:56:09.425Z,4.00
2023-02-04T05:58:39.913Z,3.63
2023-02-04T06:01:08.009Z,3.73
2023-02-04T06:03:37.341Z,3.90
2023-02-04T06:06:05.702Z,4.63
2023-02-04T06:08:33.730Z,3.60
2023-02-04T06:11:01.800Z,4.00
2023-02-04T06:13:29.723Z,4.07
2023-02-04T06:15:57.902Z,3.80
2023-02-04T06:18:25.891Z,5.13
2023-02-04T06:20:55.313Z,3.37
2023-02-04T06:23:23.435Z,3.77
2023-02-04T06:25:51.348Z,4.27
2023-02-04T06:28:19.393Z,4.17
2023-02-04T06:30:47.514Z,3.53
2023-02-04T06:33:15.549Z,3.50
2023-02-04T06:35:43.473Z,3.53
2023-02-04T06:38:13.101Z,4.20
2023-02-04T06:40:41.103Z,3.70
2023-02-04T06:43:09.160Z,3.97
2023-02-04T06:45:37.195Z,4.83
2023-02-04T06:48:05.785Z,4.47
2023-02-04T06:50:33.900Z,3.53
2023-02-04T06:53:02.412Z,5.17
2023-02-04T06:55:31.737Z,4.87
2023-02-04T06:57:59.704Z,4.37
2023-02-04T07:00:27.817Z,4.17
2023-02-04T07:02:56.737Z,4.57
2023-02-04T07:05:24.836Z,4.00
2023-02-04T07:07:53.238Z,4.83
2023-02-04T07:10:21.907Z,5.00
2023-02-04T07:12:51.248Z,4.27
2023-02-04T07:15:19.263Z,4.00
2023-02-04T07:17:47.270Z,4.17
2023-02-04T07:20:15.236Z,4.27
2023-02-04T07:22:43.226Z,3.83
2023-02-04T07:25:15.233Z,4.23
2023-02-04T07:27:43.315Z,4.00
2023-02-04T07:30:13.993Z,4.83
2023-02-04T07:32:42.193Z,5.10
2023-02-04T07:35:11.795Z,4.10
2023-02-04T07:37:40.102Z,4.33
2023-02-04T07:40:08.985Z,4.93
2023-02-04T07:42:37.005Z,4.23
2023-02-04T07:45:05.371Z,5.10
2023-02-04T07:47:34.720Z,4.70
2023-02-04T07:50:02.744Z,5.00
2023-02-04T07:52:30.685Z,4.90
2023-02-04T07:54:59.724Z,4.90
2023-02-04T07:57:29.250Z,4.20
2023-02-04T07:59:57.240Z,4.37
2023-02-04T08:02:25.406Z,5.20
2023-02-04T08:04:54.772Z,4.50
2023-02-04T08:07:22.750Z,4.33
2023-02-04T08:09:50.772Z,4.07
2023-02-04T08:12:18.720Z,5.27
2023-02-04T08:14:46.744Z,4.83
2023-02-04T08:17:14.786Z,5.30
2023-02-04T08:19:42.795Z,5.27
2023-02-04T08:22:12.265Z,5.10
2023-02-04T08:24:40.436Z,5.20
2023-02-04T08:27:08.455Z,5.27
2023-02-04T08:29:36.452Z,5.27
2023-02-04T08:32:05.187Z,6.33
2023-02-04T08:34:33.271Z,5.67
2023-02-04T08:37:01.246Z,5.87
2023-02-04T08:39:30.751Z,5.67
2023-02-04T08:41:58.838Z,6.20
2023-02-04T08:44:26.794Z,6.40
2023-02-04T08:46:54.885Z,6.20
2023-02-04T08:49:23.061Z,6.97
2023-02-04T08:51:51.200Z,6.47
2023-02-04T08:54:19.374Z,6.13
2023-02-04T08:56:49.066Z,6.37
2023-02-04T08:59:16.976Z,7.20
2023-02-04T09:01:51.017Z,6.30
2023-02-04T09:04:19.177Z,6.50
2023-02-04T09:06:47.488Z,6.10
2023-02-04T09:09:15.946Z,7.23
2023-02-04T09:11:44.681Z,8.13
2023-02-04T09:14:14.570Z,6.03
2023-02-04T09:16:42.593Z,7.30
2023-02-04T09:19:12.870Z,7.40
2023-02-04T09:21:41.357Z,7.10
2023-02-04T09:24:09.578Z,6.27
2023-02-04T09:26:37.579Z,7.20
2023-02-04T09:29:05.770Z,7.63
2023-02-04T09:31:35.876Z,6.77
2023-02-04T09:34:04.030Z,6.87
2023-02-04T09:36:34.237Z,5.90
2023-02-04T09:39:02.771Z,5.80
2023-02-04T09:41:31.182Z,6.73
2023-02-04T09:44:01.007Z,5.67
2023-02-04T09:46:30.775Z,6.20
2023-02-04T09:49:03.390Z,5.63
2023-02-04T09:51:35.458Z,6.40
2023-02-04T09:54:09.921Z,5.80
2023-02-04T09:56:38.435Z,5.77
2023-02-04T09:59:11.934Z,6.57
2023-02-04T10:01:40.202Z,5.33
2023-02-04T10:04:14.127Z,3.67
2023-02-04T10:06:43.589Z,4.00
2023-02-04T10:09:12.824Z,4.17
2023-02-04T10:11:42.555Z,4.97
2023-02-04T10:14:15.229Z,4.77
2023-02-04T10:16:45.044Z,5.50
2023-02-04T10:19:16.898Z,4.40
2023-02-04T10:21:46.516Z,4.83
2023-02-04T10:24:17.261Z,3.23
2023-02-04T10:26:45.876Z,2.80
2023-02-04T10:29:18.757Z,2.67
2023-02-04T10:31:49.174Z,2.40
2023-02-04T10:34:20.692Z,2.83
2023-02-04T10:36:49.920Z,3.33
2023-02-04T10:39:20.389Z,3.10
2023-02-04T10:41:50.828Z,2.90
2023-02-04T10:44:20.122Z,3.60
2023-02-04T10:46:48.442Z,3.57
2023-02-04T10:49:23.758Z,3.57
2023-02-04T10:52:04.235Z,3.67
2023-02-04T10:54:39.117Z,3.67
2023-02-04T10:57:18.902Z,3.77
2023-02-04T10:59:48.690Z,4.50
2023-02-04T11:02:38.065Z,4.40
2023-02-04T11:05:13.527Z,4.70
2023-02-04T11:07:41.607Z,4.30
2023-02-04T11:10:15.235Z,4.43
2023-02-04T11:12:45.032Z,4.50
2023-02-04T11:15:38.873Z,4.70
2023-02-04T11:18:08.752Z,4.87
2023-02-04T11:20:40.033Z,5.63
2023-02-04T11:23:30.867Z,5.40
2023-02-04T11:26:18.991Z,6.07
2023-02-04T11:29:10.242Z,5.20
2023-02-04T11:31:46.752Z,6.10
2023-02-04T11:34:28.056Z,5.30
2023-02-04T11:37:20.364Z,4.83
2023-02-04T11:39:50.319Z,4.33
2023-02-04T11:42:21.996Z,4.20
2023-02-04T11:44:54.337Z,4.40
2023-02-04T11:47:24.767Z,3.67
2023-02-04T11:49:57.143Z,3.23
2023-02-04T11:52:26.921Z,3.40
2023-02-04T11:54:56.444Z,3.07
2023-02-04T11:57:24.761Z,3.30
2023-02-04T11:59:52.986Z,3.70
2023-02-04T12:02:22.786Z,3.33
2023-02-04T12:04:56.339Z,3.40
2023-02-04T12:07:31.361Z,3.03
2023-02-04T12:09:59.784Z,2.13
2023-02-04T12:12:30.561Z,3.53
2023-02-04T12:15:02.267Z,2.77
2023-02-04T12:17:30.444Z,2.93
2023-02-04T12:19:58.800Z,2.93
2023-02-04T12:22:28.199Z,2.83
2023-02-04T12:24:56.131Z,2.57
2023-02-04T12:27:24.185Z,2.93
2023-02-04T12:29:52.234Z,3.40
2023-02-04T12:32:20.207Z,2.50
2023-02-04T12:34:48.168Z,2.73
2023-02-04T12:37:16.164Z,3.43
2023-02-04T12:39:45.524Z,3.37
2023-02-04T12:42:13.682Z,3.57
2023-02-04T12:44:43.086Z,3.00
2023-02-04T12:47:11.066Z,3.20
2023-02-04T12:49:39.055Z,3.20
2023-02-04T12:52:07.356Z,3.40
2023-02-04T12:54:35.905Z,3.10
2023-02-04T12:57:05.504Z,3.00
2023-02-04T12:59:33.576Z,3.87
2023-02-04T13:02:01.622Z,3.47
2023-02-04T13:04:29.964Z,3.70
2023-02-04T13:06:58.355Z,3.70
2023-02-04T13:09:26.309Z,3.73
2023-02-04T13:11:54.382Z,4.13
2023-02-04T13:14:23.937Z,4.97
2023-02-04T13:16:51.958Z,4.40
2023-02-04T13:19:20.043Z,4.53
2023-02-04T13:21:48.688Z,5.13
2023-02-04T13:24:17.323Z,4.53
2023-02-04T13:26:45.343Z,4.20
2023-02-04T13:29:13.439Z,4.70
2023-02-04T13:31:43.064Z,5.60
2023-02-04T13:34:11.090Z,6.03
2023-02-04T13:36:39.365Z,6.13
2023-02-04T13:39:07.614Z,5.50
2023-02-04T13:41:36.132Z,5.97
2023-02-04T13:44:06.326Z,5.17
2023-02-04T13:46:34.689Z,6.00
2023-02-04T13:49:04.288Z,6.60
2023-02-04T13:51:32.546Z,6.90
2023-02-04T13:54:00.881Z,6.47
2023-02-04T13:56:29.465Z,6.33
2023-02-04T13:58:57.453Z,6.97
2023-02-04T14:01:25.626Z,8.37
2023-02-04T14:03:53.631Z,7.40
2023-02-04T14:06:23.642Z,7.67
2023-02-04T14:08:51.743Z,8.33
2023-02-04T14:11:19.681Z,8.00
2023-02-04T14:13:48.078Z,7.93
2023-02-04T14:16:16.090Z,7.60
2023-02-04T14:18:44.055Z,8.33
2023-02-04T14:21:12.312Z,9.33
2023-02-04T14:23:42.144Z,8.63
2023-02-04T14:26:10.310Z,9.27
2023-02-04T14:28:38.340Z,10.20
2023-02-04T14:31:06.717Z,10.17
2023-02-04T14:33:34.684Z,9.67
2023-02-04T14:36:02.682Z,9.77
2023-02-04T14:38:31.856Z,9.80
2023-02-04T14:41:01.568Z,10.97
2023-02-04T14:43:29.741Z,9.47
2023-02-04T14:45:59.539Z,10.07
2023-02-04T14:48:28.281Z,10.23
2023-02-04T14:50:56.371Z,11.20
2023-02-04T14:53:24.622Z,11.00
2023-02-04T14:55:52.580Z,10.80
2023-02-04T14:58:21.945Z,11.27
2023-02-04T15:00:49.902Z,11.57
2023-02-04T15:03:17.858Z,11.93
2023-02-04T15:05:45.775Z,11.93
2023-02-04T15:08:13.752Z,10.97
2023-02-04T15:10:41.712Z,11.63
2023-02-04T15:13:10.049Z,12.00
2023-02-04T15:15:39.529Z,11.13
2023-02-04T15:18:07.710Z,11.73
2023-02-04T15:20:35.845Z,11.13
2023-02-04T15:23:04.068Z,10.93
2023-02-04T15:25:32.059Z,10.83
2023-02-04T15:28:00.004Z,11.10
2023-02-04T15:30:27.982Z,11.20
2023-02-04T15:32:57.414Z,11.13
2023-02-04T15:35:25.518Z,10.90
2023-02-04T15:37:53.501Z,10.37
2023-02-04T15:40:21.562Z,11.53
2023-02-04T15:42:50.729Z,10.53
2023-02-04T15:45:18.724Z,11.20
2023-02-04T15:47:46.677Z,11.30
2023-02-04T15:50:16.282Z,11.37
2023-02-04T15:52:44.260Z,10.47
2023-02-04T15:55:12.368Z,9.90
2023-02-04T15:57:40.319Z,12.27
2023-02-04T16:00:09.538Z,10.53
2023-02-04T16:02:37.652Z,10.80
2023-02-04T16:05:07.082Z,10.00
2023-02-04T16:07:36.908Z,10.43
2023-02-04T16:10:05.172Z,9.97
2023-02-04T16:12:33.267Z,10.60
2023-02-04T16:15:01.343Z,10.63
2023-02-04T16:17:29.584Z,10.70
2023-02-04T16:19:58.096Z,12.00
2023-02-04T16:22:26.090Z,11.17
2023-02-04T16:24:55.723Z,11.37
2023-02-04T16:27:23.734Z,10.47
2023-02-04T16:29:51.691Z,10.53
2023-02-04T16:32:19.952Z,10.63
2023-02-04T16:34:48.030Z,9.63
2023-02-04T16:37:15.960Z,10.57
2023-02-04T16:39:45.201Z,9.83
2023-02-04T16:42:14.835Z,10.30
2023-02-04T16:44:42.793Z,10.47
2023-02-04T16:47:10.928Z,10.70
2023-02-04T16:49:39.584Z,11.33
2023-02-04T16:52:08.136Z,9.87
2023-02-04T16:54:36.377Z,11.30
2023-02-04T16:57:04.773Z,10.70
2023-02-04T16:59:35.686Z,8.43
2023-02-04T17:02:03.728Z,8.40
2023-02-04T17:04:32.413Z,7.83
2023-02-04T17:07:00.680Z,7.93
2023-02-04T17:09:28.957Z,7.70
2023-02-04T17:11:56.856Z,7.73
2023-02-04T17:14:25.119Z,7.30
2023-02-04T17:16:54.446Z,7.87
2023-02-04T17:19:22.485Z,7.13
2023-02-04T17:21:50.410Z,8.10
2023-02-04T17:24:18.403Z,8.23
2023-02-04T17:26:46.358Z,7.83
2023-02-04T17:29:17.249Z,9.67
2023-02-04T17:31:45.356Z,9.43
2023-02-04T17:34:15.106Z,9.90
2023-02-04T17:36:43.033Z,9.57
2023-02-04T17:39:10.991Z,8.53
2023-02-04T17:41:39.088Z,10.70
2023-02-04T17:44:07.334Z,9.93
2023-02-04T17:46:35.561Z,9.73
2023-02-04T17:49:03.604Z,10.23
2023-02-04T17:51:33.117Z,10.07
2023-02-04T17:54:01.334Z,10.10
2023-02-04T17:56:29.279Z,10.70
2023-02-04T17:58:57.950Z,11.63
2023-02-04T18:01:26.228Z,11.43
2023-02-04T18:03:54.560Z,10.97
2023-02-04T18:06:25.147Z,11.43
2023-02-04T18:09:01.262Z,11.73
2023-02-04T18:11:33.025Z,11.53
2023-02-04T18:14:06.621Z,11.67
2023-02-04T18:16:36.936Z,11.87
2023-02-04T18:19:17.361Z,11.53
2023-02-04T18:21:46.499Z,12.07
2023-02-04T18:24:19.406Z,11.07
2023-02-04T18:26:49.611Z,12.43
2023-02-04T18:29:30.417Z,11.50
2023-02-04T18:32:00.247Z,11.20
2023-02-04T18:34:34.180Z,12.07
2023-02-04T18:37:04.855Z,11.93
2023-02-04T18:39:34.505Z,11.13
2023-02-04T18:42:02.659Z,12.40
2023-02-04T18:44:34.319Z,11.83
2023-02-04T18:47:06.288Z,11.97
2023-02-04T18:49:36.956Z,11.33
2023-02-04T18:52:16.326Z,11.10
2023-02-04T18:54:49.991Z,11.13
2023-02-04T18:57:29.090Z,12.37
2023-02-04T19:00:36.960Z,11.67
2023-02-04T19:03:21.070Z,11.03
2023-02-04T19:05:50.444Z,12.13
2023-02-04T19:08:24.981Z,11.63
2023-02-04T19:10:55.864Z,12.27
2023-02-04T19:13:26.781Z,12.17
2023-02-04T19:16:04.634Z,12.23
2023-02-04T19:18:38.587Z,12.30
2023-02-04T19:21:23.401Z,11.90
2023-02-04T19:23:53.361Z,11.67
2023-02-04T19:26:33.249Z,12.60
2023-02-04T19:29:22.757Z,13.10
2023-02-04T19:31:51.767Z,12.70
2023-02-04T19:34:26.273Z,12.63
2023-02-04T19:36:55.570Z,12.50
2023-02-04T19:39:31.736Z,11.80
2023-02-04T19:42:01.187Z,12.23
2023-02-04T19:44:36.551Z,11.70
2023-02-04T19:47:21.450Z,11.40
2023-02-04T19:49:49.911Z,11.83
2023-02-04T19:52:36.754Z,10.43
2023-02-04T19:55:28.248Z,11.23
2023-02-04T19:58:01.410Z,10.17
2023-02-04T20:00:43.064Z,10.50
2023-02-04T20:03:31.049Z,8.90
2023-02-04T20:06:02.849Z,9.70
2023-02-04T20:08:47.011Z,9.90
2023-02-04T20:11:40.153Z,10.27
2023-02-04T20:14:38.010Z,10.60
2023-02-04T20:17:27.412Z,10.20
2023-02-04T20:19:56.879Z,9.90
2023-02-04T20:22:45.518Z,10.00
2023-02-04T20:25:45.593Z,11.07
2023-02-04T20:28:23.520Z,10.60
2023-02-04T20:30:53.838Z,11.30
2023-02-04T20:33:29.282Z,11.47
2023-02-04T20:36:30.370Z,11.53
2023-02-04T20:39:21.494Z,11.80
2023-02-04T20:41:50.026Z,11.73
2023-02-04T20:44:24.716Z,11.33
2023-02-04T20:46:56.985Z,11.87
2023-02-04T20:49:27.576Z,11.40
2023-02-04T20:52:00.160Z,11.07
2023-02-04T20:54:31.260Z,12.47
2023-02-04T20:57:12.617Z,10.90
2023-02-04T20:59:42.771Z,11.67
2023-02-04T21:02:18.835Z,11.20
2023-02-04T21:04:53.698Z,12.33
2023-02-04T21:07:24.191Z,11.27
2023-02-04T21:09:52.721Z,12.23
2023-02-04T21:12:21.663Z,11.33
2023-02-04T21:14:50.311Z,12.13
2023-02-04T21:17:19.779Z,11.90
2023-02-04T21:19:50.875Z,11.90
2023-02-04T21:22:19.007Z,12.63
2023-02-04T21:24:47.085Z,12.70
2023-02-04T21:27:17.675Z,12.30
2023-02-04T21:29:47.060Z,13.33
2023-02-04T21:32:15.355Z,13.83
2023-02-04T21:34:44.688Z,13.13
2023-02-04T21:37:14.130Z,13.07
2023-02-04T21:39:43.425Z,12.80
2023-02-04T21:42:11.649Z,12.90
2023-02-04T21:44:39.889Z,12.93
2023-02-04T21:47:10.255Z,13.50
2023-02-04T21:49:41.358Z,13.33
2023-02-04T21:52:15.726Z,12.60
2023-02-04T21:54:46.595Z,12.10
2023-02-04T21:57:16.331Z,12.90
2023-02-04T21:59:49.724Z,13.20
2023-02-04T22:02:18.181Z,12.97
2023-02-04T22:04:46.446Z,13.00
2023-02-04T22:07:15.907Z,12.37
2023-02-04T22:09:43.947Z,12.40
2023-02-04T22:12:12.348Z,12.90
2023-02-04T22:14:41.168Z,11.27
2023-02-04T22:17:09.249Z,12.20
2023-02-04T22:19:38.627Z,12.13
2023-02-04T22:22:07.285Z,11.93
2023-02-04T22:24:36.859Z,11.30
2023-02-04T22:27:07.315Z,12.00
2023-02-04T22:29:36.551Z,11.43
2023-02-04T22:32:05.949Z,11.93
2023-02-04T22:34:34.014Z,11.00
2023-02-04T22:37:02.112Z,10.30
2023-02-04T22:39:32.538Z,10.57
2023-02-04T22:42:01.969Z,10.03
2023-02-04T22:44:29.948Z,9.50
2023-02-04T22:46:58.216Z,10.53
2023-02-04T22:49:46.574Z,10.77
2023-02-04T22:52:15.642Z,10.13
2023-02-04T22:54:44.669Z,11.00
2023-02-04T22:57:14.007Z,9.83
2023-02-04T22:59:42.747Z,9.43
2023-02-04T23:02:11.984Z,10.33
2023-02-04T23:04:40.573Z,10.10
2023-02-04T23:07:10.145Z,9.53
2023-02-04T23:09:41.045Z,9.37
2023-02-04T23:12:15.320Z,10.10
2023-02-04T23:14:48.118Z,9.37
2023-02-04T23:17:19.197Z,9.50
2023-02-04T23:19:47.346Z,9.27
2023-02-04T23:22:15.791Z,9.97
2023-02-04T23:24:44.683Z,9.40
2023-02-04T23:27:17.485Z,9.37
2023-02-04T23:29:46.839Z,10.17
2023-02-04T23:32:15.431Z,9.50
2023-02-04T23:34:43.734Z,9.53
2023-02-04T23:37:12.919Z,9.77
2023-02-04T23:39:41.091Z,9.60
2023-02-04T23:42:09.297Z,9.57
2023-02-04T23:44:38.319Z,9.13
2023-02-04T23:47:10.126Z,9.60
2023-02-04T23:49:40.031Z,8.77
2023-02-04T23:52:08.190Z,8.93
2023-02-04T23:54:36.502Z,8.73
2023-02-04T23:57:06.148Z,9.37
2023-02-04T23:59:36.115Z,9.00
